createdAt,value
2022-12-18T00:00:14.637Z,72.40
2022-12-18T00:02:45.452Z,72.30
2022-12-18T00:05:14.392Z,72.30
2022-12-18T00:07:44.508Z,72.40
2022-12-18T00:10:15.335Z,72.40
2022-12-18T00:12:43.991Z,72.20
2022-12-18T00:15:11.855Z,71.90
2022-12-18T00:17:40.438Z,72.10
2022-12-18T00:20:10.426Z,72.00
2022-12-18T00:22:40.743Z,72.20
2022-12-18T00:25:11.063Z,72.00
2022-12-18T00:27:41.719Z,71.70
2022-12-18T00:30:12.088Z,71.80
2022-12-18T00:32:41.628Z,71.90
2022-12-18T00:35:12.276Z,72.00
2022-12-18T00:37:41.379Z,71.80
2022-12-18T00:40:12.542Z,71.70
2022-12-18T00:42:58.324Z,71.50
2022-12-18T00:45:30.582Z,71.60
2022-12-18T00:48:01.315Z,71.70
2022-12-18T00:50:32.058Z,71.70
2022-12-18T00:53:03.981Z,71.70
2022-12-18T00:55:33.518Z,71.80
2022-12-18T00:58:03.467Z,71.70
2022-12-18T01:00:35.062Z,71.90
2022-12-18T01:03:04.851Z,71.80
2022-12-18T01:05:35.022Z,71.90
2022-12-18T01:08:05.280Z,71.90
2022-12-18T01:10:34.879Z,71.90
2022-12-18T01:13:02.809Z,71.90
2022-12-18T01:15:33.703Z,71.70
2022-12-18T01:18:04.165Z,71.60
2022-12-18T01:20:32.252Z,71.60
2022-12-18T01:23:01.009Z,71.70
2022-12-18T01:25:29.967Z,71.70
2022-12-18T01:28:01.068Z,71.70
2022-12-18T01:30:32.608Z,71.60
2022-12-18T01:33:01.152Z,71.60
2022-12-18T01:35:31.003Z,71.50
2022-12-18T01:38:01.008Z,71.30
2022-12-18T01:40:32.386Z,71.30
2022-12-18T01:43:03.340Z,71.30
2022-12-18T01:45:35.967Z,71.00
2022-12-18T01:48:09.634Z,70.80
2022-12-18T01:50:45.311Z,70.60
2022-12-18T01:53:18.723Z,70.50
2022-12-18T01:55:51.831Z,70.40
2022-12-18T01:58:24.564Z,70.40
2022-12-18T02:00:54.411Z,70.40
2022-12-18T02:03:24.952Z,70.40
2022-12-18T02:06:01.870Z,70.20
2022-12-18T02:08:50.217Z,70.10
2022-12-18T02:11:28.712Z,70.10
2022-12-18T02:14:19.745Z,69.90
2022-12-18T02:17:23.901Z,69.70
2022-12-18T02:20:16.353Z,69.70
2022-12-18T02:22:53.342Z,69.80
2022-12-18T02:25:43.015Z,69.80
2022-12-18T02:28:17.990Z,69.80
2022-12-18T02:30:51.771Z,69.90
2022-12-18T02:33:23.305Z,69.80
2022-12-18T02:35:56.804Z,69.80
2022-12-18T02:38:29.773Z,69.70
2022-12-18T02:41:03.976Z,69.70
2022-12-18T03:06:03.974Z,69.40
2022-12-18T03:08:46.395Z,69.50
2022-12-18T03:11:16.531Z,69.60
2022-12-18T03:13:52.624Z,69.50
2022-12-18T03:16:28.962Z,69.40
2022-12-18T03:18:59.931Z,69.40
2022-12-18T03:21:35.158Z,69.40
2022-12-18T03:24:10.703Z,69.30
2022-12-18T03:26:44.444Z,69.20
2022-12-18T03:29:37.059Z,69.20
2022-12-18T03:32:34.421Z,69.00
2022-12-18T03:35:08.160Z,69.00
2022-12-18T03:37:40.195Z,69.00
2022-12-18T03:40:11.637Z,69.00
2022-12-18T03:42:58.082Z,69.00
2022-12-18T03:45:40.239Z,69.00
2022-12-18T03:48:41.467Z,68.90
2022-12-18T03:51:41.197Z,69.00
2022-12-18T03:54:12.631Z,68.90
2022-12-18T03:56:56.289Z,68.80
2022-12-18T03:59:48.702Z,68.80
2022-12-18T04:06:52.245Z,68.70
2022-12-18T04:09:32.048Z,68.60
2022-12-18T04:12:00.976Z,68.50
2022-12-18T04:14:30.638Z,68.50
2022-12-18T04:17:01.418Z,68.40
2022-12-18T04:19:35.700Z,68.40
2022-12-18T04:22:06.087Z,68.40
2022-12-18T04:24:44.511Z,68.30
2022-12-18T04:27:24.321Z,68.20
2022-12-18T04:29:55.145Z,68.20
2022-12-18T04:32:25.236Z,68.10
2022-12-18T04:34:56.925Z,68.10
2022-12-18T04:37:26.995Z,68.10
2022-12-18T04:39:56.889Z,68.10
2022-12-18T04:42:35.730Z,68.00
2022-12-18T04:45:05.795Z,68.00
2022-12-18T04:47:33.272Z,68.00
2022-12-18T04:50:04.407Z,68.00
2022-12-18T04:52:32.130Z,67.90
2022-12-18T04:55:10.773Z,67.80
2022-12-18T05:32:07.578Z,68.30
2022-12-18T06:42:22.574Z,67.90
2022-12-18T06:44:52.280Z,67.90
2022-12-18T06:47:22.273Z,67.90
2022-12-18T06:49:50.720Z,67.80
2022-12-18T06:52:18.995Z,67.80
2022-12-18T06:54:49.150Z,67.60
2022-12-18T06:57:18.311Z,67.50
2022-12-18T06:59:49.245Z,67.50
2022-12-18T07:02:18.889Z,67.40
2022-12-18T07:04:48.140Z,67.30
2022-12-18T07:07:17.121Z,67.30
2022-12-18T07:09:47.191Z,67.20
2022-12-18T07:12:17.021Z,67.20
2022-12-18T07:14:46.945Z,67.20
2022-12-18T07:17:21.691Z,67.10
2022-12-18T07:24:14.602Z,67.00
2022-12-18T07:32:06.527Z,67.00
2022-12-18T07:38:38.082Z,67.20
2022-12-18T07:55:54.734Z,67.40
2022-12-18T07:58:32.394Z,67.60
2022-12-18T08:02:01.054Z,67.70
2022-12-18T08:04:31.795Z,67.80
2022-12-18T08:07:01.742Z,67.80
2022-12-18T08:09:30.162Z,68.00
2022-12-18T08:11:59.515Z,68.00
2022-12-18T08:14:28.455Z,68.10
2022-12-18T08:17:02.258Z,68.20
2022-12-18T08:19:33.011Z,68.40
2022-12-18T08:22:03.152Z,68.50
2022-12-18T08:24:31.113Z,68.50
2022-12-18T08:27:27.797Z,68.60
2022-12-18T08:29:48.370Z,68.70
2022-12-18T08:32:16.058Z,68.80
2022-12-18T08:34:45.056Z,68.80
2022-12-18T08:37:13.496Z,68.90
2022-12-18T09:00:39.644Z,69.30
2022-12-18T09:20:09.381Z,70.40
2022-12-18T09:35:46.751Z,70.80
2022-12-18T09:40:11.012Z,71.00
2022-12-18T09:42:40.916Z,70.90
2022-12-18T09:45:16.130Z,71.10
2022-12-18T09:47:46.259Z,71.10
2022-12-18T09:50:56.475Z,71.10
2022-12-18T10:00:30.987Z,70.70
2022-12-18T10:03:23.653Z,70.90
2022-12-18T10:06:19.807Z,70.90
2022-12-18T10:09:06.499Z,70.90
2022-12-18T10:15:29.158Z,70.80
2022-12-18T10:18:21.836Z,70.80
2022-12-18T10:20:57.768Z,70.60
2022-12-18T10:23:59.539Z,70.70
2022-12-18T10:26:27.284Z,70.70
2022-12-18T10:28:56.367Z,70.60
2022-12-18T10:31:26.332Z,70.80
2022-12-18T10:33:56.259Z,70.40
2022-12-18T10:36:25.798Z,70.20
2022-12-18T10:38:53.065Z,70.20
2022-12-18T10:41:21.789Z,70.10
2022-12-18T10:43:49.521Z,70.30
2022-12-18T10:46:20.800Z,69.90
2022-12-18T10:48:48.430Z,69.80
2022-12-18T10:51:31.705Z,69.80
2022-12-18T10:54:02.109Z,69.80
2022-12-18T10:56:34.003Z,69.90
2022-12-18T10:59:10.745Z,69.80
2022-12-18T11:01:58.532Z,69.70
2022-12-18T11:04:33.253Z,69.80
2022-12-18T11:07:09.748Z,69.60
2022-12-18T11:09:39.091Z,69.60
2022-12-18T11:12:21.088Z,69.70
2022-12-18T11:14:53.165Z,69.70
2022-12-18T11:17:36.088Z,69.40
2022-12-18T11:20:20.281Z,69.30
2022-12-18T11:23:03.918Z,69.40
2022-12-18T11:25:35.102Z,69.40
2022-12-18T11:28:27.685Z,69.30
2022-12-18T11:31:33.670Z,69.30
2022-12-18T11:34:28.635Z,69.20
2022-12-18T11:37:01.036Z,69.00
2022-12-18T11:39:45.251Z,69.20
2022-12-18T11:42:16.443Z,69.20
2022-12-18T11:44:51.354Z,69.00
2022-12-18T11:47:38.154Z,69.10
2022-12-18T11:50:19.280Z,68.90
2022-12-18T11:52:49.392Z,68.80
2022-12-18T11:55:46.430Z,68.70
2022-12-18T11:58:36.020Z,68.70
2022-12-18T12:01:08.745Z,68.40
2022-12-18T12:04:02.687Z,68.30
2022-12-18T12:06:45.339Z,68.20
2022-12-18T12:09:45.489Z,68.10
2022-12-18T12:12:18.274Z,67.90
2022-12-18T12:15:08.259Z,68.00
2022-12-18T12:17:52.312Z,68.10
2022-12-18T12:20:46.628Z,68.10
2022-12-18T12:23:32.804Z,67.90
2022-12-18T12:26:11.316Z,67.90
2022-12-18T12:28:49.862Z,67.80
2022-12-18T12:31:29.206Z,67.60
2022-12-18T12:34:18.371Z,67.60
2022-12-18T12:37:11.362Z,67.20
2022-12-18T12:39:41.753Z,67.30
2022-12-18T12:42:53.091Z,67.20
2022-12-18T12:45:28.769Z,67.50
2022-12-18T12:47:56.754Z,67.60
2022-12-18T12:50:25.528Z,67.50
2022-12-18T12:52:56.535Z,67.30
2022-12-18T12:55:25.988Z,67.00
2022-12-18T12:58:27.609Z,66.90
2022-12-18T13:01:24.390Z,66.80
2022-12-18T13:04:02.338Z,66.90
2022-12-18T13:06:29.285Z,66.80
2022-12-18T13:09:01.402Z,66.50
2022-12-18T13:11:57.797Z,66.40
2022-12-18T13:14:35.478Z,66.30
2022-12-18T13:17:25.882Z,66.50
2022-12-18T13:20:17.327Z,66.30
2022-12-18T13:22:51.277Z,66.30
2022-12-18T13:25:37.900Z,66.20
2022-12-18T13:28:07.011Z,66.10
2022-12-18T13:30:34.494Z,65.90
2022-12-18T13:33:24.949Z,66.10
2022-12-18T13:35:51.926Z,66.10
2022-12-18T13:38:24.921Z,66.20
2022-12-18T13:40:51.761Z,66.10
2022-12-18T13:43:21.816Z,66.20
2022-12-18T13:46:26.429Z,66.20
2022-12-18T13:49:14.714Z,66.10
2022-12-18T13:51:55.057Z,66.00
2022-12-18T13:54:41.387Z,65.90
2022-12-18T13:57:30.963Z,65.80
2022-12-18T13:59:58.779Z,65.50
2022-12-18T14:02:28.180Z,65.30
2022-12-18T14:04:56.425Z,65.40
2022-12-18T14:07:26.574Z,65.50
2022-12-18T14:10:12.205Z,65.40
2022-12-18T14:12:57.877Z,65.30
2022-12-18T14:15:27.999Z,65.20
2022-12-18T14:17:58.608Z,65.30
2022-12-18T14:20:27.437Z,65.20
2022-12-18T14:22:55.507Z,65.10
2022-12-18T14:25:25.851Z,65.10
2022-12-18T14:28:10.636Z,65.10
2022-12-18T14:30:46.209Z,65.00
2022-12-18T14:33:13.179Z,64.90
2022-12-18T14:35:59.535Z,64.90
2022-12-18T14:38:29.958Z,64.90
2022-12-18T14:41:02.066Z,64.80
2022-12-18T14:43:32.924Z,64.80
2022-12-18T14:46:03.177Z,64.90
2022-12-18T14:48:44.744Z,64.80
2022-12-18T14:51:28.049Z,64.60
2022-12-18T14:54:04.983Z,64.70
2022-12-18T14:56:36.765Z,64.80
2022-12-18T14:59:35.509Z,64.70
2022-12-18T15:02:19.870Z,64.80
2022-12-18T15:04:47.647Z,64.60
2022-12-18T15:07:25.774Z,64.40
2022-12-18T15:10:11.560Z,64.20
2022-12-18T15:12:42.082Z,64.20
2022-12-18T15:15:35.062Z,64.20
2022-12-18T15:18:03.645Z,64.00
2022-12-18T15:20:42.643Z,64.00
2022-12-18T15:23:23.907Z,64.10
2022-12-18T15:26:09.825Z,64.20
2022-12-18T15:28:39.134Z,64.20
2022-12-18T15:31:18.029Z,64.20
2022-12-18T15:33:56.248Z,64.30
2022-12-18T15:36:39.297Z,64.40
2022-12-18T15:39:16.693Z,64.20
2022-12-18T15:42:04.983Z,64.10
2022-12-18T15:44:34.198Z,64.20
2022-12-18T15:47:02.665Z,64.40
2022-12-18T15:49:37.339Z,64.40
2022-12-18T15:52:08.109Z,64.20
2022-12-18T15:54:53.989Z,64.30
2022-12-18T15:57:25.620Z,64.40
2022-12-18T16:00:00.470Z,64.30
2022-12-18T16:02:29.140Z,64.30
2022-12-18T16:04:58.737Z,64.30
2022-12-18T16:07:28.149Z,64.20
2022-12-18T16:10:02.494Z,64.10
2022-12-18T16:12:32.480Z,63.80
2022-12-18T16:15:01.806Z,64.00
2022-12-18T16:17:29.461Z,64.00
2022-12-18T16:19:59.124Z,64.00
2022-12-18T16:22:31.310Z,63.70
2022-12-18T16:25:01.739Z,63.90
2022-12-18T16:27:29.603Z,63.80
2022-12-18T16:29:57.707Z,63.90
2022-12-18T16:32:25.160Z,63.90
2022-12-18T16:34:52.120Z,63.80
2022-12-18T16:37:19.806Z,63.90
2022-12-18T16:39:46.959Z,63.80
2022-12-18T16:42:26.981Z,63.90
2022-12-18T16:44:56.402Z,63.90
2022-12-18T16:47:24.507Z,63.80
2022-12-18T16:49:54.117Z,64.00
2022-12-18T16:52:22.368Z,64.00
2022-12-18T16:54:52.349Z,63.90
2022-12-18T16:57:23.170Z,64.00
2022-12-18T16:59:56.034Z,64.00
2022-12-18T17:02:28.344Z,63.90
2022-12-18T17:04:58.277Z,63.80
2022-12-18T17:07:28.661Z,63.80
2022-12-18T17:10:07.083Z,63.90
2022-12-18T17:12:38.152Z,64.10
2022-12-18T17:15:06.860Z,63.80
2022-12-18T17:17:34.587Z,63.90
2022-12-18T17:20:02.357Z,63.90
2022-12-18T17:22:29.683Z,63.90
2022-12-18T17:25:20.733Z,63.80
2022-12-18T17:28:12.158Z,63.80
2022-12-18T17:30:41.076Z,63.90
2022-12-18T17:33:09.483Z,63.90
2022-12-18T17:35:37.659Z,64.70
2022-12-18T17:38:05.919Z,63.80
2022-12-18T17:40:34.128Z,63.80
2022-12-18T17:43:05.104Z,63.90
2022-12-18T17:45:45.102Z,63.80
2022-12-18T17:48:18.736Z,63.80
2022-12-18T17:50:51.616Z,63.80
2022-12-18T17:53:22.388Z,63.80
2022-12-18T17:55:58.093Z,63.90
2022-12-18T17:58:26.819Z,63.90
2022-12-18T18:00:54.638Z,63.70
2022-12-18T18:03:22.570Z,63.80
2022-12-18T18:06:02.403Z,63.80
2022-12-18T18:08:32.680Z,63.90
2022-12-18T18:11:25.883Z,64.10
2022-12-18T18:14:23.445Z,64.00
2022-12-18T18:17:02.545Z,64.00
2022-12-18T18:19:39.391Z,64.00
2022-12-18T18:22:25.477Z,64.10
2022-12-18T18:25:13.993Z,63.90
2022-12-18T18:27:46.113Z,63.90
2022-12-18T18:30:22.818Z,64.00
2022-12-18T18:32:54.435Z,64.10
2022-12-18T18:38:48.494Z,64.20
2022-12-18T18:41:23.181Z,64.20
2022-12-18T18:44:00.511Z,64.20
2022-12-18T18:46:29.079Z,64.20
2022-12-18T18:48:59.885Z,64.20
2022-12-18T18:51:35.129Z,65.00
2022-12-18T18:54:05.049Z,64.10
2022-12-18T18:57:11.715Z,64.20
2022-12-18T18:59:31.540Z,64.20
2022-12-18T19:02:04.798Z,64.30
2022-12-18T19:04:34.736Z,64.30
2022-12-18T19:07:02.965Z,64.20
2022-12-18T19:09:32.171Z,64.10
2022-12-18T19:12:25.244Z,64.20
2022-12-18T19:14:55.425Z,64.30
2022-12-18T19:17:36.144Z,64.20
2022-12-18T19:20:28.832Z,64.10
2022-12-18T19:23:06.957Z,64.20
2022-12-18T19:29:03.472Z,64.30
2022-12-18T19:34:28.070Z,64.50
2022-12-18T19:36:59.767Z,64.40
2022-12-18T19:39:27.956Z,64.50
2022-12-18T19:41:56.570Z,64.40
2022-12-18T19:44:24.523Z,64.40
2022-12-18T19:46:51.872Z,64.30
2022-12-18T19:49:21.531Z,64.10
2022-12-18T19:51:50.487Z,64.20
2022-12-18T19:54:18.298Z,64.20
2022-12-18T19:56:46.095Z,64.10
2022-12-18T19:59:14.185Z,64.10
2022-12-18T20:01:41.477Z,64.20
2022-12-18T20:04:09.044Z,64.20
2022-12-18T20:06:47.943Z,64.30
2022-12-18T20:09:15.887Z,64.30
2022-12-18T20:11:43.494Z,64.50
2022-12-18T20:14:12.562Z,64.60
2022-12-18T20:16:39.690Z,64.80
2022-12-18T20:19:07.848Z,65.20
2022-12-18T20:21:34.803Z,65.60
2022-12-18T20:24:02.201Z,65.90
2022-12-18T20:26:29.917Z,66.20
2022-12-18T20:28:56.828Z,66.60
2022-12-18T20:31:24.509Z,66.80
2022-12-18T20:33:53.400Z,67.00
2022-12-18T20:36:22.640Z,67.20
2022-12-18T20:38:55.721Z,67.50
2022-12-18T20:41:27.710Z,67.70
2022-12-18T20:44:04.737Z,67.90
2022-12-18T20:46:31.718Z,68.10
2022-12-18T20:48:58.819Z,68.40
2022-12-18T20:51:28.204Z,68.70
2022-12-18T20:53:55.536Z,68.80
2022-12-18T20:56:23.576Z,69.00
2022-12-18T20:58:53.660Z,69.20
2022-12-18T21:01:23.414Z,69.40
2022-12-18T21:03:51.621Z,69.50
2022-12-18T21:06:20.622Z,69.60
2022-12-18T21:08:48.583Z,69.80
2022-12-18T21:11:38.851Z,70.00
2022-12-18T21:14:17.933Z,70.10
2022-12-18T21:16:44.999Z,70.30
2022-12-18T21:19:13.541Z,70.60
2022-12-18T21:21:41.786Z,70.70
2022-12-18T21:24:09.906Z,70.80
2022-12-18T21:26:44.897Z,71.00
2022-12-18T21:29:15.633Z,71.10
2022-12-18T21:31:43.270Z,71.20
2022-12-18T21:34:17.650Z,71.40
2022-12-18T21:36:44.948Z,71.50
2022-12-18T21:39:13.718Z,71.60
2022-12-18T21:41:59.124Z,71.80
2022-12-18T21:44:26.173Z,71.80
2022-12-18T21:46:58.194Z,71.90
2022-12-18T21:49:28.609Z,72.00
2022-12-18T21:51:57.742Z,72.20
2022-12-18T21:54:26.831Z,72.40
2022-12-18T21:57:02.380Z,72.50
2022-12-18T21:59:37.837Z,72.70
2022-12-18T22:02:14.766Z,72.80
2022-12-18T22:04:42.774Z,73.00
2022-12-18T22:07:10.742Z,73.10
2022-12-18T22:09:38.556Z,73.20
2022-12-18T22:12:06.115Z,73.30
2022-12-18T22:14:33.095Z,73.40
2022-12-18T22:17:00.088Z,73.50
2022-12-18T22:19:27.995Z,73.50
2022-12-18T22:21:54.909Z,73.60
2022-12-18T22:24:24.098Z,73.70
2022-12-18T22:26:55.829Z,73.70
2022-12-18T22:29:47.560Z,74.70
2022-12-18T22:32:30.769Z,73.80
2022-12-18T22:35:07.936Z,74.20
2022-12-18T22:37:37.020Z,74.20
2022-12-18T22:40:05.970Z,74.30
2022-12-18T22:42:34.266Z,74.40
2022-12-18T22:45:01.147Z,74.40
2022-12-18T22:47:30.335Z,74.40
2022-12-18T22:49:58.109Z,74.40
2022-12-18T22:52:25.486Z,74.50
2022-12-18T22:54:53.952Z,74.60
2022-12-18T22:57:22.240Z,75.50
2022-12-18T22:59:50.132Z,74.70
2022-12-18T23:02:18.729Z,74.70
2022-12-18T23:04:45.995Z,74.80
2022-12-18T23:07:12.897Z,74.90
2022-12-18T23:09:40.594Z,74.90
2022-12-18T23:12:08.050Z,74.90
2022-12-18T23:14:35.030Z,74.90
2022-12-18T23:17:01.978Z,75.00
2022-12-18T23:19:29.137Z,75.00
2022-12-18T23:21:58.620Z,75.00
2022-12-18T23:24:26.438Z,75.10
2022-12-18T23:26:53.554Z,75.20
2022-12-18T23:29:20.750Z,75.20
2022-12-18T23:31:47.669Z,75.20
2022-12-18T23:34:15.112Z,75.30
2022-12-18T23:36:46.206Z,75.40
2022-12-18T23:39:27.033Z,75.40
2022-12-18T23:41:59.701Z,75.50
2022-12-18T23:44:27.324Z,75.60
2022-12-18T23:46:54.581Z,75.70
2022-12-18T23:49:21.692Z,75.80
2022-12-18T23:51:49.936Z,75.90
2022-12-18T23:54:17.370Z,75.90
2022-12-18T23:56:49.424Z,76.00
2022-12-18T23:59:17.168Z,76.00
